Brownsville, California
Current Conditions -  °F | °C
As of 11:53 AM on Friday 24 Oct 2014 (Local Time) from KOVE Reporting Station
Clear Clear  
Wind Chill: 68°   Ceiling: Unl
Heat Index: 68°   Visibility: 10mi
Dew Point: 50°   Wind: 5mph
Humidity: 52%   Direction: 140°SE
Pressure: 29.98"   Gusts: NA
Location:  39.47°N, 121.27°W
Report Text: KOVE 241853Z AUTO 14004KT 10SM CLR 20/10 A2998 RMK AO2 SLP152 T02000100
Loading
Personal Weather Stations






























Interactive Weather Map
Tropical Storm Tracking
New forecast layout! Learn more

10-Day Weather Forecast

Advertisements
Track Severe Weather on mobile